• Join FlightAware (Why Join?)
  • Login
  • US Flag 
08:44PM EDT


 

Airport Tracker/Info


-or-


 

Live Flight TrackerFlight Track Log ✈ N379CD ✈ 20-Jun-2013 ✈ KPTK - KOSU

Flight Track Log - Related Links

Times and Time Zones

All times are in EDT time to prevent confusion due to time zone crossing. See the N379CD flight status page for this flight to view local times or setup timezone preferences in your user account.

Time Position Orientation Groundspeed Altitude Reporting Facility
EDT Latitude Longitude Course Direction KTS MPH feet Rate Location/Type
11:22AM 42.6667 -83.4381 265° West 109 125 1,400  Level Cleveland Center
11:23AM 42.6633 -83.4858 265° West 121 139 2,500 1,020 Climbing Cleveland Center
11:25AM 42.6436 -83.5189 231° Southwest 118 136 3,600 960 Climbing Cleveland Center
11:26AM 42.6108 -83.5031 160° South 131 151 4,500 840 Climbing Cleveland Center
11:27AM 42.5822 -83.4764 146° Southeast 127 146 5,400 840 Climbing Cleveland Center
11:28AM 42.5517 -83.4497 147° Southeast 130 150 6,300 720 Climbing Cleveland Center
11:28AM 42.5208 -83.4258 150° Southeast 145 167 6,900 600 Climbing Cleveland Center
11:29AM 42.4883 -83.3961 146° Southeast 140 161 7,500 540 Climbing Cleveland Center
11:30AM 42.4514 -83.3692 152° Southeast 151 174 8,000 240 Climbing Cleveland Center
11:31AM 42.4058 -83.3644 176° South 165 190 8,000  Level Cleveland Center
11:32AM 42.3642 -83.3569 172° South 166 191 8,000  Level Cleveland Center
11:34AM 42.3058 -83.3517 176° South 168 193 8,000  Level Cleveland Center
11:35AM 42.2644 -83.3469 175° South 168 193 8,000  Level Cleveland Center
11:36AM 42.2167 -83.3392 173° South 166 191 8,000  Level Cleveland Center
11:36AM 42.1750 -83.3319 173° South 163 188 8,000  Level Cleveland Center
11:37AM 42.1314 -83.3272 175° South 160 184 8,000  Level Cleveland Center
11:38AM 42.0856 -83.3253 178° South 161 185 8,000  Level Cleveland Center
11:39AM 42.0400 -83.3175 173° South 163 188 8,000  Level Cleveland Center
11:41AM 41.9912 -83.3241 186° South  Level FlightAware Approximate
11:48AM 41.6533 -83.3310 172° South  Level FlightAware Approximate
11:48AM 41.6758 -83.2661 172° South 163 188 8,000  Level Indianapolis Center
11:49AM 41.6055 -83.3225 172° South  Level FlightAware Approximate
11:49AM 41.6231 -83.2597 175° South 163 188 8,000  Level Indianapolis Center
11:50AM 41.5578 -83.3141 172° South  Level FlightAware Approximate
11:50AM 41.5769 -83.2547 175° South 163 188 8,000  Level Indianapolis Center
11:51AM 41.5100 -83.3057 172° South  Level FlightAware Approximate
11:51AM 41.5311 -83.2478 174° South 164 189 8,000  Level Indianapolis Center
11:52AM 41.4622 -83.2973 172° South  Level FlightAware Approximate
11:52AM 41.4858 -83.2411 174° South 163 188 8,000  Level Indianapolis Center
11:53AM 41.4144 -83.2889 172° South  Level FlightAware Approximate
11:53AM 41.4408 -83.2367 176° South 162 186 8,000  Level Indianapolis Center
11:54AM 41.3947 -83.2314 175° South 164 189 8,000  Level Indianapolis Center
11:55AM 41.3492 -83.2261 175° South 164 189 8,000  Level Indianapolis Center
11:56AM 41.2958 -83.2192 174° South 164 189 8,000  Level Indianapolis Center
11:57AM 41.2486 -83.2139 175° South 167 192 8,000  Level Indianapolis Center
11:58AM 41.2031 -83.2069 173° South 165 190 8,000  Level Indianapolis Center
11:59AM 41.1575 -83.2028 176° South 164 189 8,000  Level Indianapolis Center
12:00PM 41.1106 -83.1958 174° South 167 192 8,000  Level Indianapolis Center
12:01PM 41.0642 -83.1900 175° South 166 191 8,000  Level Indianapolis Center
12:02PM 41.0175 -83.1842 175° South 167 192 8,000  Level Indianapolis Center
12:03PM 40.9628 -83.1772 175° South 167 192 8,000  Level Indianapolis Center
12:04PM 40.9161 -83.1717 175° South 166 191 8,000  Level Indianapolis Center
12:05PM 40.8697 -83.1667 175° South 167 192 8,000  Level Indianapolis Center
12:06PM 40.8219 -83.1614 175° South 170 196 8,000  Level Indianapolis Center
12:07PM 40.7753 -83.1558 175° South 169 194 8,000  Level Indianapolis Center
12:08PM 40.7236 -83.1503 175° South 167 192 8,000  Level Indianapolis Center
12:09PM 40.6831 -83.1456 175° South 165 190 8,000  Level Indianapolis Center
12:10PM 40.6300 -83.1392 175° South 168 193 8,000  Level Indianapolis Center
12:11PM 40.5819 -83.1317 173° South 166 191 8,000  Level Indianapolis Center
12:12PM 40.5347 -83.1261 175° South 167 192 8,000  Level Indianapolis Center
12:14PM 40.4897 -83.1211 175° South 167 192 8,000  Level Indianapolis Center
12:15PM 40.4431 -83.1158 175° South 167 192 8,000 -240 Level Indianapolis Center
12:16PM 40.3925 -83.1136 178° South 160 184 7,600 -720 Descending Indianapolis Center
12:17PM 40.3408 -83.1075 175° South 182 209 6,600 -1,200 Descending Indianapolis Center
12:18PM 40.2869 -83.0986 173° South 205 236 5,200 -840 Descending Indianapolis Center
12:19PM 40.2350 -83.0925 175° South 159 183 5,000 -240 Descending Indianapolis Center
12:20PM 40.1956 -83.0847 171° South 157 181 4,700 -480 Descending Indianapolis Center
12:21PM 40.1536 -83.0694 164° South 151 174 4,000 -660 Descending Indianapolis Center
12:22PM 40.1189 -83.0461 153° Southeast 156 180 3,500 -600 Descending Indianapolis Center
12:23PM 40.1072 -83.0011 109° East 142 163 3,000 -840 Descending Indianapolis Center
12:24PM 40.0856 -83.0192 213° Southwest 148 170 1,700 -840 Descending Indianapolis Center
12:25PM 40.0761 -83.0636 254° West 128 147 1,200 -540 Descending Indianapolis Center
12:27PM 40.0667 -83.0667 270° West  Level FlightAware Approximate